sensor_id;sensor_type;location;lat;lon;timestamp;P1;durP1;ratioP1;P2;durP2;ratioP2
17790;SDS011;9019;48.132;-1.210;2023-07-29T00:00:48;3.03;;;1.67;;
17790;SDS011;9019;48.132;-1.210;2023-07-29T00:03:16;2.67;;;1.98;;
17790;SDS011;9019;48.132;-1.210;2023-07-29T00:05:43;3.17;;;1.85;;
17790;SDS011;9019;48.132;-1.210;2023-07-29T00:08:10;2.47;;;1.70;;
17790;SDS011;9019;48.132;-1.210;2023-07-29T00:10:37;2.17;;;1.85;;
17790;SDS011;9019;48.132;-1.210;2023-07-29T00:13:04;2.45;;;1.85;;
17790;SDS011;9019;48.132;-1.210;2023-07-29T00:15:32;4.00;;;1.77;;
17790;SDS011;9019;48.132;-1.210;2023-07-29T00:18:01;3.25;;;1.75;;
17790;SDS011;9019;48.132;-1.210;2023-07-29T00:20:28;3.13;;;1.80;;
17790;SDS011;9019;48.132;-1.210;2023-07-29T00:22:55;2.67;;;1.85;;
17790;SDS011;9019;48.132;-1.210;2023-07-29T00:25:23;2.30;;;1.75;;
17790;SDS011;9019;48.132;-1.210;2023-07-29T00:27:50;2.50;;;1.88;;
17790;SDS011;9019;48.132;-1.210;2023-07-29T00:30:18;3.88;;;1.98;;
17790;SDS011;9019;48.132;-1.210;2023-07-29T00:32:45;2.90;;;2.38;;
17790;SDS011;9019;48.132;-1.210;2023-07-29T00:35:13;4.80;;;2.10;;
17790;SDS011;9019;48.132;-1.210;2023-07-29T00:37:40;2.63;;;2.10;;
17790;SDS011;9019;48.132;-1.210;2023-07-29T00:40:09;2.20;;;1.98;;
17790;SDS011;9019;48.132;-1.210;2023-07-29T00:42:39;3.97;;;2.00;;
17790;SDS011;9019;48.132;-1.210;2023-07-29T00:45:08;2.90;;;1.80;;
17790;SDS011;9019;48.132;-1.210;2023-07-29T00:47:35;2.55;;;2.00;;
17790;SDS011;9019;48.132;-1.210;2023-07-29T00:50:02;2.65;;;2.30;;
17790;SDS011;9019;48.132;-1.210;2023-07-29T00:52:31;2.25;;;1.92;;
17790;SDS011;9019;48.132;-1.210;2023-07-29T00:54:58;2.78;;;2.05;;
17790;SDS011;9019;48.132;-1.210;2023-07-29T00:57:25;2.25;;;2.03;;
17790;SDS011;9019;48.132;-1.210;2023-07-29T00:59:53;4.60;;;1.90;;
17790;SDS011;9019;48.132;-1.210;2023-07-29T01:02:20;2.20;;;1.98;;
17790;SDS011;9019;48.132;-1.210;2023-07-29T01:04:51;2.65;;;2.00;;
17790;SDS011;9019;48.132;-1.210;2023-07-29T01:07:19;3.80;;;2.20;;
17790;SDS011;9019;48.132;-1.210;2023-07-29T01:09:50;3.53;;;1.90;;
17790;SDS011;9019;48.132;-1.210;2023-07-29T01:12:21;3.75;;;2.30;;
17790;SDS011;9019;48.132;-1.210;2023-07-29T01:14:51;2.67;;;2.30;;
17790;SDS011;9019;48.132;-1.210;2023-07-29T01:17:23;3.67;;;2.33;;
17790;SDS011;9019;48.132;-1.210;2023-07-29T01:19:55;2.28;;;2.08;;
17790;SDS011;9019;48.132;-1.210;2023-07-29T01:22:28;3.65;;;2.30;;
17790;SDS011;9019;48.132;-1.210;2023-07-29T01:24:59;2.83;;;2.35;;
17790;SDS011;9019;48.132;-1.210;2023-07-29T01:27:27;3.53;;;2.33;;
17790;SDS011;9019;48.132;-1.210;2023-07-29T01:29:54;4.43;;;2.35;;
17790;SDS011;9019;48.132;-1.210;2023-07-29T01:32:24;3.03;;;2.15;;
17790;SDS011;9019;48.132;-1.210;2023-07-29T01:34:53;2.50;;;2.17;;
17790;SDS011;9019;48.132;-1.210;2023-07-29T01:37:24;2.38;;;2.10;;
17790;SDS011;9019;48.132;-1.210;2023-07-29T01:39:52;3.05;;;2.03;;
17790;SDS011;9019;48.132;-1.210;2023-07-29T01:42:24;2.67;;;2.35;;
17790;SDS011;9019;48.132;-1.210;2023-07-29T01:44:51;3.33;;;2.10;;
17790;SDS011;9019;48.132;-1.210;2023-07-29T01:47:18;3.35;;;2.40;;
17790;SDS011;9019;48.132;-1.210;2023-07-29T01:49:47;4.07;;;2.10;;
17790;SDS011;9019;48.132;-1.210;2023-07-29T01:52:14;3.17;;;2.65;;
17790;SDS011;9019;48.132;-1.210;2023-07-29T01:54:41;2.38;;;2.08;;
17790;SDS011;9019;48.132;-1.210;2023-07-29T01:57:08;4.65;;;2.47;;
17790;SDS011;9019;48.132;-1.210;2023-07-29T01:59:37;4.95;;;2.28;;
17790;SDS011;9019;48.132;-1.210;2023-07-29T02:02:05;2.95;;;2.38;;
17790;SDS011;9019;48.132;-1.210;2023-07-29T02:04:32;4.88;;;2.63;;
17790;SDS011;9019;48.132;-1.210;2023-07-29T02:07:00;2.45;;;2.13;;
17790;SDS011;9019;48.132;-1.210;2023-07-29T02:09:27;2.42;;;2.22;;
17790;SDS011;9019;48.132;-1.210;2023-07-29T02:11:54;3.67;;;2.60;;
17790;SDS011;9019;48.132;-1.210;2023-07-29T02:14:22;3.47;;;2.60;;
17790;SDS011;9019;48.132;-1.210;2023-07-29T02:16:51;2.92;;;2.17;;
17790;SDS011;9019;48.132;-1.210;2023-07-29T02:19:18;3.22;;;2.30;;
17790;SDS011;9019;48.132;-1.210;2023-07-29T02:21:45;4.25;;;2.63;;
17790;SDS011;9019;48.132;-1.210;2023-07-29T02:24:12;5.10;;;2.85;;
17790;SDS011;9019;48.132;-1.210;2023-07-29T02:26:39;3.55;;;2.47;;
17790;SDS011;9019;48.132;-1.210;2023-07-29T02:29:07;4.53;;;2.42;;
17790;SDS011;9019;48.132;-1.210;2023-07-29T02:31:34;3.20;;;2.50;;
17790;SDS011;9019;48.132;-1.210;2023-07-29T02:34:04;3.75;;;2.50;;
17790;SDS011;9019;48.132;-1.210;2023-07-29T02:36:31;4.35;;;2.80;;
17790;SDS011;9019;48.132;-1.210;2023-07-29T02:38:58;6.07;;;2.70;;
17790;SDS011;9019;48.132;-1.210;2023-07-29T02:41:25;3.80;;;2.20;;
17790;SDS011;9019;48.132;-1.210;2023-07-29T02:43:52;3.90;;;2.10;;
17790;SDS011;9019;48.132;-1.210;2023-07-29T02:46:20;2.83;;;2.25;;
17790;SDS011;9019;48.132;-1.210;2023-07-29T02:48:47;4.15;;;2.72;;
17790;SDS011;9019;48.132;-1.210;2023-07-29T02:51:16;4.50;;;2.70;;
17790;SDS011;9019;48.132;-1.210;2023-07-29T02:53:43;4.68;;;2.80;;
17790;SDS011;9019;48.132;-1.210;2023-07-29T02:56:10;4.60;;;2.70;;
17790;SDS011;9019;48.132;-1.210;2023-07-29T02:58:37;5.90;;;3.30;;
17790;SDS011;9019;48.132;-1.210;2023-07-29T03:01:05;5.53;;;2.97;;
17790;SDS011;9019;48.132;-1.210;2023-07-29T03:03:33;7.38;;;2.90;;
17790;SDS011;9019;48.132;-1.210;2023-07-29T03:06:01;4.55;;;3.05;;
17790;SDS011;9019;48.132;-1.210;2023-07-29T03:08:30;5.55;;;3.25;;
17790;SDS011;9019;48.132;-1.210;2023-07-29T03:10:57;5.95;;;3.05;;
17790;SDS011;9019;48.132;-1.210;2023-07-29T03:13:25;6.07;;;3.05;;
17790;SDS011;9019;48.132;-1.210;2023-07-29T03:15:52;4.05;;;3.40;;
17790;SDS011;9019;48.132;-1.210;2023-07-29T03:18:19;3.35;;;3.03;;
17790;SDS011;9019;48.132;-1.210;2023-07-29T03:20:46;6.15;;;3.55;;
17790;SDS011;9019;48.132;-1.210;2023-07-29T03:23:15;4.53;;;3.78;;
17790;SDS011;9019;48.132;-1.210;2023-07-29T03:25:44;8.32;;;3.40;;
17790;SDS011;9019;48.132;-1.210;2023-07-29T03:28:15;6.53;;;3.08;;
17790;SDS011;9019;48.132;-1.210;2023-07-29T03:30:43;5.85;;;3.40;;
17790;SDS011;9019;48.132;-1.210;2023-07-29T03:33:10;6.32;;;3.20;;
17790;SDS011;9019;48.132;-1.210;2023-07-29T03:35:37;5.65;;;3.63;;
17790;SDS011;9019;48.132;-1.210;2023-07-29T03:38:04;6.13;;;3.70;;
17790;SDS011;9019;48.132;-1.210;2023-07-29T03:40:31;7.55;;;3.38;;
17790;SDS011;9019;48.132;-1.210;2023-07-29T03:43:00;5.90;;;3.80;;
17790;SDS011;9019;48.132;-1.210;2023-07-29T03:45:27;9.98;;;3.60;;
17790;SDS011;9019;48.132;-1.210;2023-07-29T03:47:54;5.65;;;3.40;;
17790;SDS011;9019;48.132;-1.210;2023-07-29T03:50:22;4.38;;;3.70;;
17790;SDS011;9019;48.132;-1.210;2023-07-29T03:52:50;5.85;;;3.53;;
17790;SDS011;9019;48.132;-1.210;2023-07-29T03:55:17;7.35;;;3.53;;
17790;SDS011;9019;48.132;-1.210;2023-07-29T03:57:44;4.65;;;3.60;;
17790;SDS011;9019;48.132;-1.210;2023-07-29T04:00:13;5.85;;;3.90;;
17790;SDS011;9019;48.132;-1.210;2023-07-29T04:02:41;7.03;;;3.88;;
17790;SDS011;9019;48.132;-1.210;2023-07-29T04:05:10;4.75;;;4.07;;
17790;SDS011;9019;48.132;-1.210;2023-07-29T04:07:37;5.03;;;4.10;;
17790;SDS011;9019;48.132;-1.210;2023-07-29T04:10:05;5.18;;;4.22;;
17790;SDS011;9019;48.132;-1.210;2023-07-29T04:12:33;3.80;;;3.25;;
17790;SDS011;9019;48.132;-1.210;2023-07-29T04:15:00;5.07;;;3.40;;
17790;SDS011;9019;48.132;-1.210;2023-07-29T04:17:29;4.93;;;2.95;;
17790;SDS011;9019;48.132;-1.210;2023-07-29T04:19:56;2.92;;;2.45;;
17790;SDS011;9019;48.132;-1.210;2023-07-29T04:22:23;3.85;;;2.40;;
17790;SDS011;9019;48.132;-1.210;2023-07-29T04:24:51;2.78;;;2.40;;
17790;SDS011;9019;48.132;-1.210;2023-07-29T04:27:18;3.22;;;2.50;;
17790;SDS011;9019;48.132;-1.210;2023-07-29T04:29:46;4.03;;;2.05;;
17790;SDS011;9019;48.132;-1.210;2023-07-29T04:32:13;5.78;;;2.22;;
17790;SDS011;9019;48.132;-1.210;2023-07-29T04:34:41;2.33;;;2.00;;
17790;SDS011;9019;48.132;-1.210;2023-07-29T04:37:09;3.17;;;1.83;;
17790;SDS011;9019;48.132;-1.210;2023-07-29T04:39:36;1.90;;;1.75;;
17790;SDS011;9019;48.132;-1.210;2023-07-29T04:42:03;2.22;;;1.80;;
17790;SDS011;9019;48.132;-1.210;2023-07-29T04:44:30;2.90;;;2.00;;
17790;SDS011;9019;48.132;-1.210;2023-07-29T04:46:58;5.45;;;3.00;;
17790;SDS011;9019;48.132;-1.210;2023-07-29T04:49:25;4.50;;;3.00;;
17790;SDS011;9019;48.132;-1.210;2023-07-29T04:51:53;3.92;;;2.63;;
17790;SDS011;9019;48.132;-1.210;2023-07-29T04:54:21;3.75;;;2.95;;
17790;SDS011;9019;48.132;-1.210;2023-07-29T04:56:48;3.63;;;2.70;;
17790;SDS011;9019;48.132;-1.210;2023-07-29T04:59:15;4.30;;;3.10;;
17790;SDS011;9019;48.132;-1.210;2023-07-29T05:01:42;3.53;;;2.90;;
17790;SDS011;9019;48.132;-1.210;2023-07-29T05:04:09;4.05;;;3.58;;
17790;SDS011;9019;48.132;-1.210;2023-07-29T05:06:36;4.03;;;3.63;;
17790;SDS011;9019;48.132;-1.210;2023-07-29T05:09:14;4.45;;;3.25;;
17790;SDS011;9019;48.132;-1.210;2023-07-29T05:11:42;7.22;;;3.90;;
17790;SDS011;9019;48.132;-1.210;2023-07-29T05:14:10;4.60;;;3.63;;
17790;SDS011;9019;48.132;-1.210;2023-07-29T05:16:37;6.65;;;3.78;;
17790;SDS011;9019;48.132;-1.210;2023-07-29T05:19:05;7.82;;;3.78;;
17790;SDS011;9019;48.132;-1.210;2023-07-29T05:21:32;7.88;;;4.05;;
17790;SDS011;9019;48.132;-1.210;2023-07-29T05:23:59;6.18;;;3.67;;
17790;SDS011;9019;48.132;-1.210;2023-07-29T05:26:28;5.65;;;3.78;;
17790;SDS011;9019;48.132;-1.210;2023-07-29T05:28:55;9.50;;;4.22;;
17790;SDS011;9019;48.132;-1.210;2023-07-29T05:31:23;6.78;;;3.92;;
17790;SDS011;9019;48.132;-1.210;2023-07-29T05:33:50;6.35;;;3.55;;
17790;SDS011;9019;48.132;-1.210;2023-07-29T05:36:17;6.25;;;3.78;;
17790;SDS011;9019;48.132;-1.210;2023-07-29T05:38:44;4.82;;;3.20;;
17790;SDS011;9019;48.132;-1.210;2023-07-29T05:41:11;6.88;;;3.05;;
17790;SDS011;9019;48.132;-1.210;2023-07-29T05:43:40;3.55;;;2.97;;
17790;SDS011;9019;48.132;-1.210;2023-07-29T05:46:08;2.83;;;2.47;;
17790;SDS011;9019;48.132;-1.210;2023-07-29T05:48:35;2.92;;;2.10;;
17790;SDS011;9019;48.132;-1.210;2023-07-29T05:51:03;2.38;;;2.10;;
17790;SDS011;9019;48.132;-1.210;2023-07-29T05:53:30;2.53;;;1.67;;
17790;SDS011;9019;48.132;-1.210;2023-07-29T05:55:57;2.13;;;1.73;;
17790;SDS011;9019;48.132;-1.210;2023-07-29T05:58:24;2.85;;;1.88;;
17790;SDS011;9019;48.132;-1.210;2023-07-29T06:00:53;3.05;;;1.50;;
17790;SDS011;9019;48.132;-1.210;2023-07-29T06:03:20;1.80;;;1.50;;
17790;SDS011;9019;48.132;-1.210;2023-07-29T06:05:48;1.80;;;1.35;;
17790;SDS011;9019;48.132;-1.210;2023-07-29T06:08:15;1.50;;;1.35;;
17790;SDS011;9019;48.132;-1.210;2023-07-29T06:10:42;1.90;;;1.67;;
17790;SDS011;9019;48.132;-1.210;2023-07-29T06:13:10;1.70;;;1.60;;
17790;SDS011;9019;48.132;-1.210;2023-07-29T06:15:37;1.50;;;1.33;;
17790;SDS011;9019;48.132;-1.210;2023-07-29T06:18:05;2.10;;;1.90;;
17790;SDS011;9019;48.132;-1.210;2023-07-29T06:20:33;1.90;;;1.20;;
17790;SDS011;9019;48.132;-1.210;2023-07-29T06:23:00;1.42;;;1.20;;
17790;SDS011;9019;48.132;-1.210;2023-07-29T06:25:27;2.28;;;1.35;;
17790;SDS011;9019;48.132;-1.210;2023-07-29T06:27:54;1.77;;;1.38;;
17790;SDS011;9019;48.132;-1.210;2023-07-29T06:30:23;1.60;;;1.30;;
17790;SDS011;9019;48.132;-1.210;2023-07-29T06:32:50;2.60;;;1.40;;
17790;SDS011;9019;48.132;-1.210;2023-07-29T06:35:19;1.90;;;1.50;;
17790;SDS011;9019;48.132;-1.210;2023-07-29T06:37:46;1.67;;;1.58;;
17790;SDS011;9019;48.132;-1.210;2023-07-29T06:40:13;2.35;;;1.58;;
17790;SDS011;9019;48.132;-1.210;2023-07-29T06:42:40;2.30;;;1.80;;
17790;SDS011;9019;48.132;-1.210;2023-07-29T06:45:08;1.38;;;1.25;;
17790;SDS011;9019;48.132;-1.210;2023-07-29T06:47:36;2.80;;;1.50;;
17790;SDS011;9019;48.132;-1.210;2023-07-29T06:50:04;1.90;;;1.40;;
17790;SDS011;9019;48.132;-1.210;2023-07-29T06:52:32;2.63;;;1.52;;
17790;SDS011;9019;48.132;-1.210;2023-07-29T06:55:01;1.92;;;1.67;;
17790;SDS011;9019;48.132;-1.210;2023-07-29T06:57:29;2.40;;;1.55;;
17790;SDS011;9019;48.132;-1.210;2023-07-29T06:59:56;1.45;;;1.35;;
17790;SDS011;9019;48.132;-1.210;2023-07-29T07:02:23;2.28;;;1.45;;
17790;SDS011;9019;48.132;-1.210;2023-07-29T07:04:50;1.60;;;1.40;;
17790;SDS011;9019;48.132;-1.210;2023-07-29T07:07:18;2.85;;;1.38;;
17790;SDS011;9019;48.132;-1.210;2023-07-29T07:09:46;2.25;;;1.20;;
17790;SDS011;9019;48.132;-1.210;2023-07-29T07:12:13;1.20;;;1.10;;
17790;SDS011;9019;48.132;-1.210;2023-07-29T07:14:40;2.10;;;1.33;;
17790;SDS011;9019;48.132;-1.210;2023-07-29T07:17:08;1.60;;;1.40;;
17790;SDS011;9019;48.132;-1.210;2023-07-29T07:19:35;2.28;;;1.45;;
17790;SDS011;9019;48.132;-1.210;2023-07-29T07:22:02;2.53;;;1.20;;
17790;SDS011;9019;48.132;-1.210;2023-07-29T07:24:30;2.00;;;1.80;;
17790;SDS011;9019;48.132;-1.210;2023-07-29T07:26:58;3.78;;;2.78;;
17790;SDS011;9019;48.132;-1.210;2023-07-29T07:29:26;4.35;;;3.35;;
17790;SDS011;9019;48.132;-1.210;2023-07-29T07:31:53;5.15;;;3.58;;
17790;SDS011;9019;48.132;-1.210;2023-07-29T07:34:21;4.47;;;3.92;;
17790;SDS011;9019;48.132;-1.210;2023-07-29T07:36:48;5.40;;;3.75;;
17790;SDS011;9019;48.132;-1.210;2023-07-29T07:39:15;4.53;;;3.47;;
17790;SDS011;9019;48.132;-1.210;2023-07-29T07:41:42;4.60;;;2.92;;
17790;SDS011;9019;48.132;-1.210;2023-07-29T07:44:11;3.25;;;2.00;;
17790;SDS011;9019;48.132;-1.210;2023-07-29T07:46:40;2.78;;;1.90;;
17790;SDS011;9019;48.132;-1.210;2023-07-29T07:49:07;2.90;;;1.80;;
17790;SDS011;9019;48.132;-1.210;2023-07-29T07:51:34;1.60;;;1.40;;
17790;SDS011;9019;48.132;-1.210;2023-07-29T07:54:02;1.48;;;1.30;;
17790;SDS011;9019;48.132;-1.210;2023-07-29T07:56:29;1.08;;;0.98;;
17790;SDS011;9019;48.132;-1.210;2023-07-29T07:58:56;1.63;;;1.08;;
17790;SDS011;9019;48.132;-1.210;2023-07-29T08:01:25;1.25;;;0.90;;
17790;SDS011;9019;48.132;-1.210;2023-07-29T08:03:52;1.17;;;0.93;;
17790;SDS011;9019;48.132;-1.210;2023-07-29T08:06:19;1.83;;;1.00;;
17790;SDS011;9019;48.132;-1.210;2023-07-29T08:08:46;1.63;;;1.00;;
17790;SDS011;9019;48.132;-1.210;2023-07-29T08:11:13;1.52;;;1.00;;
17790;SDS011;9019;48.132;-1.210;2023-07-29T08:13:40;1.83;;;0.95;;
17790;SDS011;9019;48.132;-1.210;2023-07-29T08:16:08;1.15;;;0.80;;
17790;SDS011;9019;48.132;-1.210;2023-07-29T08:18:36;1.58;;;1.10;;
17790;SDS011;9019;48.132;-1.210;2023-07-29T08:21:04;1.08;;;0.80;;
17790;SDS011;9019;48.132;-1.210;2023-07-29T08:23:31;1.10;;;0.80;;
17790;SDS011;9019;48.132;-1.210;2023-07-29T08:25:59;1.90;;;0.85;;
17790;SDS011;9019;48.132;-1.210;2023-07-29T08:28:27;1.25;;;0.90;;
17790;SDS011;9019;48.132;-1.210;2023-07-29T08:30:54;1.33;;;0.75;;
17790;SDS011;9019;48.132;-1.210;2023-07-29T08:33:22;2.20;;;1.10;;
17790;SDS011;9019;48.132;-1.210;2023-07-29T08:35:50;1.10;;;0.90;;
17790;SDS011;9019;48.132;-1.210;2023-07-29T08:38:18;1.17;;;0.93;;
17790;SDS011;9019;48.132;-1.210;2023-07-29T08:40:46;1.95;;;0.98;;
17790;SDS011;9019;48.132;-1.210;2023-07-29T08:43:17;1.42;;;0.90;;
17790;SDS011;9019;48.132;-1.210;2023-07-29T08:45:46;1.08;;;0.80;;
17790;SDS011;9019;48.132;-1.210;2023-07-29T08:48:13;1.60;;;1.05;;
17790;SDS011;9019;48.132;-1.210;2023-07-29T08:50:43;1.67;;;1.08;;
17790;SDS011;9019;48.132;-1.210;2023-07-29T08:53:12;1.73;;;0.85;;
17790;SDS011;9019;48.132;-1.210;2023-07-29T08:55:39;1.02;;;0.93;;
17790;SDS011;9019;48.132;-1.210;2023-07-29T08:58:07;1.67;;;0.80;;
17790;SDS011;9019;48.132;-1.210;2023-07-29T09:00:34;1.92;;;1.00;;
17790;SDS011;9019;48.132;-1.210;2023-07-29T09:03:02;1.33;;;0.90;;
17790;SDS011;9019;48.132;-1.210;2023-07-29T09:05:32;1.63;;;0.93;;
17790;SDS011;9019;48.132;-1.210;2023-07-29T09:08:00;1.27;;;0.88;;
17790;SDS011;9019;48.132;-1.210;2023-07-29T09:10:30;2.40;;;1.08;;
17790;SDS011;9019;48.132;-1.210;2023-07-29T09:13:01;1.05;;;0.95;;
17790;SDS011;9019;48.132;-1.210;2023-07-29T09:15:29;1.75;;;0.85;;
17790;SDS011;9019;48.132;-1.210;2023-07-29T09:17:57;2.05;;;0.90;;
17790;SDS011;9019;48.132;-1.210;2023-07-29T09:20:24;1.70;;;0.95;;
17790;SDS011;9019;48.132;-1.210;2023-07-29T09:23:09;2.00;;;1.42;;
17790;SDS011;9019;48.132;-1.210;2023-07-29T09:25:37;1.58;;;0.98;;
17790;SDS011;9019;48.132;-1.210;2023-07-29T09:28:08;1.15;;;0.90;;
17790;SDS011;9019;48.132;-1.210;2023-07-29T09:30:36;2.15;;;0.82;;
17790;SDS011;9019;48.132;-1.210;2023-07-29T09:33:03;2.53;;;1.20;;
17790;SDS011;9019;48.132;-1.210;2023-07-29T09:35:32;1.05;;;0.82;;
17790;SDS011;9019;48.132;-1.210;2023-07-29T09:38:00;2.03;;;1.00;;
17790;SDS011;9019;48.132;-1.210;2023-07-29T09:40:33;2.92;;;1.17;;
17790;SDS011;9019;48.132;-1.210;2023-07-29T09:43:01;2.20;;;1.02;;
17790;SDS011;9019;48.132;-1.210;2023-07-29T09:45:29;1.10;;;0.90;;
17790;SDS011;9019;48.132;-1.210;2023-07-29T09:47:56;1.58;;;0.80;;
17790;SDS011;9019;48.132;-1.210;2023-07-29T09:50:24;2.35;;;0.90;;
17790;SDS011;9019;48.132;-1.210;2023-07-29T09:52:52;1.10;;;0.90;;
17790;SDS011;9019;48.132;-1.210;2023-07-29T09:55:20;1.65;;;1.00;;
17790;SDS011;9019;48.132;-1.210;2023-07-29T09:57:49;2.60;;;1.20;;
17790;SDS011;9019;48.132;-1.210;2023-07-29T10:00:19;1.85;;;1.10;;
17790;SDS011;9019;48.132;-1.210;2023-07-29T10:02:47;1.60;;;1.00;;
17790;SDS011;9019;48.132;-1.210;2023-07-29T10:05:15;2.00;;;1.10;;
17790;SDS011;9019;48.132;-1.210;2023-07-29T10:07:42;2.05;;;0.95;;
17790;SDS011;9019;48.132;-1.210;2023-07-29T10:10:09;1.40;;;0.90;;
17790;SDS011;9019;48.132;-1.210;2023-07-29T10:12:39;2.35;;;0.90;;
17790;SDS011;9019;48.132;-1.210;2023-07-29T10:15:09;2.55;;;1.00;;
17790;SDS011;9019;48.132;-1.210;2023-07-29T10:17:37;1.45;;;0.85;;
17790;SDS011;9019;48.132;-1.210;2023-07-29T10:20:05;1.10;;;1.00;;
17790;SDS011;9019;48.132;-1.210;2023-07-29T10:22:33;3.33;;;1.20;;
17790;SDS011;9019;48.132;-1.210;2023-07-29T10:25:03;1.75;;;0.90;;
17790;SDS011;9019;48.132;-1.210;2023-07-29T10:27:32;1.25;;;0.80;;
17790;SDS011;9019;48.132;-1.210;2023-07-29T10:30:00;1.20;;;1.00;;
17790;SDS011;9019;48.132;-1.210;2023-07-29T10:32:30;2.15;;;1.13;;
17790;SDS011;9019;48.132;-1.210;2023-07-29T10:34:58;1.42;;;0.90;;
17790;SDS011;9019;48.132;-1.210;2023-07-29T10:37:25;2.95;;;0.93;;
17790;SDS011;9019;48.132;-1.210;2023-07-29T10:39:53;1.27;;;1.17;;
17790;SDS011;9019;48.132;-1.210;2023-07-29T10:42:21;2.95;;;1.20;;
17790;SDS011;9019;48.132;-1.210;2023-07-29T10:44:48;2.20;;;1.40;;
17790;SDS011;9019;48.132;-1.210;2023-07-29T10:47:17;2.28;;;1.10;;
17790;SDS011;9019;48.132;-1.210;2023-07-29T10:49:46;1.60;;;1.10;;
17790;SDS011;9019;48.132;-1.210;2023-07-29T10:52:14;1.50;;;1.17;;
17790;SDS011;9019;48.132;-1.210;2023-07-29T10:54:42;4.07;;;1.40;;
17790;SDS011;9019;48.132;-1.210;2023-07-29T10:57:12;1.38;;;0.88;;
17790;SDS011;9019;48.132;-1.210;2023-07-29T10:59:40;2.53;;;1.40;;
17790;SDS011;9019;48.132;-1.210;2023-07-29T11:02:12;2.13;;;1.05;;
17790;SDS011;9019;48.132;-1.210;2023-07-29T11:04:47;2.90;;;1.33;;
17790;SDS011;9019;48.132;-1.210;2023-07-29T11:07:21;1.25;;;0.82;;
17790;SDS011;9019;48.132;-1.210;2023-07-29T11:09:55;2.03;;;1.05;;
17790;SDS011;9019;48.132;-1.210;2023-07-29T11:12:37;2.08;;;1.20;;
17790;SDS011;9019;48.132;-1.210;2023-07-29T11:15:11;1.80;;;1.00;;
17790;SDS011;9019;48.132;-1.210;2023-07-29T11:17:39;1.92;;;1.10;;
17790;SDS011;9019;48.132;-1.210;2023-07-29T11:20:08;1.20;;;0.95;;
17790;SDS011;9019;48.132;-1.210;2023-07-29T11:22:37;0.98;;;0.88;;
17790;SDS011;9019;48.132;-1.210;2023-07-29T11:25:04;0.93;;;0.82;;
17790;SDS011;9019;48.132;-1.210;2023-07-29T11:27:32;3.55;;;1.00;;
17790;SDS011;9019;48.132;-1.210;2023-07-29T11:30:00;1.10;;;0.90;;
17790;SDS011;9019;48.132;-1.210;2023-07-29T11:32:27;2.25;;;1.45;;
17790;SDS011;9019;48.132;-1.210;2023-07-29T11:34:55;3.47;;;1.20;;
17790;SDS011;9019;48.132;-1.210;2023-07-29T11:37:24;1.20;;;1.10;;
17790;SDS011;9019;48.132;-1.210;2023-07-29T11:39:51;2.15;;;1.20;;
17790;SDS011;9019;48.132;-1.210;2023-07-29T11:42:19;2.08;;;1.10;;
17790;SDS011;9019;48.132;-1.210;2023-07-29T11:44:46;1.48;;;1.05;;
17790;SDS011;9019;48.132;-1.210;2023-07-29T11:47:13;1.15;;;1.00;;
17790;SDS011;9019;48.132;-1.210;2023-07-29T11:49:40;1.45;;;1.00;;
17790;SDS011;9019;48.132;-1.210;2023-07-29T11:52:08;1.20;;;1.10;;
17790;SDS011;9019;48.132;-1.210;2023-07-29T11:54:38;1.48;;;1.02;;
17790;SDS011;9019;48.132;-1.210;2023-07-29T11:57:06;2.55;;;1.20;;
17790;SDS011;9019;48.132;-1.210;2023-07-29T11:59:33;1.35;;;1.00;;
17790;SDS011;9019;48.132;-1.210;2023-07-29T12:02:01;2.15;;;1.17;;
17790;SDS011;9019;48.132;-1.210;2023-07-29T12:04:29;1.30;;;1.10;;
17790;SDS011;9019;48.132;-1.210;2023-07-29T12:06:57;2.45;;;1.10;;
17790;SDS011;9019;48.132;-1.210;2023-07-29T12:09:24;1.20;;;1.10;;
17790;SDS011;9019;48.132;-1.210;2023-07-29T12:11:55;2.08;;;1.15;;
17790;SDS011;9019;48.132;-1.210;2023-07-29T12:14:25;2.05;;;1.20;;
17790;SDS011;9019;48.132;-1.210;2023-07-29T12:16:53;1.52;;;1.20;;
17790;SDS011;9019;48.132;-1.210;2023-07-29T12:19:20;2.55;;;1.08;;
17790;SDS011;9019;48.132;-1.210;2023-07-29T12:21:50;1.00;;;0.90;;
17790;SDS011;9019;48.132;-1.210;2023-07-29T12:24:17;5.07;;;1.30;;
17790;SDS011;9019;48.132;-1.210;2023-07-29T12:26:46;2.65;;;1.35;;
17790;SDS011;9019;48.132;-1.210;2023-07-29T12:29:16;1.70;;;1.15;;
17790;SDS011;9019;48.132;-1.210;2023-07-29T12:31:44;1.58;;;0.90;;
17790;SDS011;9019;48.132;-1.210;2023-07-29T12:34:17;1.88;;;1.05;;
17790;SDS011;9019;48.132;-1.210;2023-07-29T12:36:45;1.67;;;1.40;;
17790;SDS011;9019;48.132;-1.210;2023-07-29T12:39:17;1.42;;;0.98;;
17790;SDS011;9019;48.132;-1.210;2023-07-29T12:41:44;2.63;;;1.77;;
17790;SDS011;9019;48.132;-1.210;2023-07-29T12:44:11;2.25;;;1.70;;
17790;SDS011;9019;48.132;-1.210;2023-07-29T12:46:40;2.42;;;1.45;;
17790;SDS011;9019;48.132;-1.210;2023-07-29T12:49:07;1.90;;;1.27;;
17790;SDS011;9019;48.132;-1.210;2023-07-29T12:51:34;1.33;;;1.13;;
17790;SDS011;9019;48.132;-1.210;2023-07-29T12:54:02;2.88;;;1.20;;
17790;SDS011;9019;48.132;-1.210;2023-07-29T12:56:29;1.88;;;1.17;;
17790;SDS011;9019;48.132;-1.210;2023-07-29T12:58:57;1.60;;;1.10;;
17790;SDS011;9019;48.132;-1.210;2023-07-29T13:01:24;2.10;;;1.30;;
17790;SDS011;9019;48.132;-1.210;2023-07-29T13:03:53;3.45;;;1.10;;
17790;SDS011;9019;48.132;-1.210;2023-07-29T13:06:21;2.28;;;1.60;;
17790;SDS011;9019;48.132;-1.210;2023-07-29T13:08:48;1.85;;;1.30;;
17790;SDS011;9019;48.132;-1.210;2023-07-29T13:11:16;3.10;;;1.38;;
17790;SDS011;9019;48.132;-1.210;2023-07-29T13:13:43;3.13;;;1.30;;
17790;SDS011;9019;48.132;-1.210;2023-07-29T13:16:11;4.07;;;1.30;;
17790;SDS011;9019;48.132;-1.210;2023-07-29T13:18:38;2.38;;;1.23;;
17790;SDS011;9019;48.132;-1.210;2023-07-29T13:21:07;1.60;;;1.08;;
17790;SDS011;9019;48.132;-1.210;2023-07-29T13:23:34;2.38;;;1.13;;
17790;SDS011;9019;48.132;-1.210;2023-07-29T13:26:01;1.75;;;1.27;;
17790;SDS011;9019;48.132;-1.210;2023-07-29T13:28:28;1.73;;;1.45;;
17790;SDS011;9019;48.132;-1.210;2023-07-29T13:30:58;2.35;;;1.80;;
17790;SDS011;9019;48.132;-1.210;2023-07-29T13:33:25;5.03;;;1.90;;
17790;SDS011;9019;48.132;-1.210;2023-07-29T13:35:52;2.45;;;1.80;;
17790;SDS011;9019;48.132;-1.210;2023-07-29T13:38:21;3.25;;;1.40;;
17790;SDS011;9019;48.132;-1.210;2023-07-29T13:40:48;1.85;;;1.33;;
17790;SDS011;9019;48.132;-1.210;2023-07-29T13:43:16;2.38;;;1.40;;
17790;SDS011;9019;48.132;-1.210;2023-07-29T13:45:43;2.00;;;1.40;;
17790;SDS011;9019;48.132;-1.210;2023-07-29T13:48:13;2.03;;;1.60;;
17790;SDS011;9019;48.132;-1.210;2023-07-29T13:50:40;2.47;;;1.33;;
17790;SDS011;9019;48.132;-1.210;2023-07-29T13:53:08;2.45;;;1.55;;
17790;SDS011;9019;48.132;-1.210;2023-07-29T13:55:37;3.05;;;1.33;;
17790;SDS011;9019;48.132;-1.210;2023-07-29T13:58:04;3.67;;;2.05;;
17790;SDS011;9019;48.132;-1.210;2023-07-29T14:00:32;2.92;;;1.40;;
17790;SDS011;9019;48.132;-1.210;2023-07-29T14:02:59;2.53;;;1.30;;
17790;SDS011;9019;48.132;-1.210;2023-07-29T14:05:27;2.83;;;1.40;;
17790;SDS011;9019;48.132;-1.210;2023-07-29T14:07:54;2.38;;;1.15;;
17790;SDS011;9019;48.132;-1.210;2023-07-29T14:10:21;2.50;;;1.20;;
17790;SDS011;9019;48.132;-1.210;2023-07-29T14:12:50;2.67;;;1.33;;
17790;SDS011;9019;48.132;-1.210;2023-07-29T14:15:17;1.20;;;1.10;;
17790;SDS011;9019;48.132;-1.210;2023-07-29T14:17:45;2.00;;;1.17;;
17790;SDS011;9019;48.132;-1.210;2023-07-29T14:20:13;2.55;;;1.10;;
17790;SDS011;9019;48.132;-1.210;2023-07-29T14:22:40;3.30;;;1.30;;
17790;SDS011;9019;48.132;-1.210;2023-07-29T14:25:08;1.50;;;1.10;;
17790;SDS011;9019;48.132;-1.210;2023-07-29T14:27:35;2.63;;;1.58;;
17790;SDS011;9019;48.132;-1.210;2023-07-29T14:30:04;2.28;;;1.50;;
17790;SDS011;9019;48.132;-1.210;2023-07-29T14:32:32;1.90;;;1.60;;
17790;SDS011;9019;48.132;-1.210;2023-07-29T14:34:59;1.88;;;1.27;;
17790;SDS011;9019;48.132;-1.210;2023-07-29T14:37:28;1.98;;;1.30;;
17790;SDS011;9019;48.132;-1.210;2023-07-29T14:39:57;2.63;;;1.27;;
17790;SDS011;9019;48.132;-1.210;2023-07-29T14:42:24;1.95;;;1.10;;
17790;SDS011;9019;48.132;-1.210;2023-07-29T14:44:52;2.50;;;1.17;;
17790;SDS011;9019;48.132;-1.210;2023-07-29T14:47:20;1.98;;;1.20;;
17790;SDS011;9019;48.132;-1.210;2023-07-29T14:49:48;2.05;;;1.10;;
17790;SDS011;9019;48.132;-1.210;2023-07-29T14:52:15;1.77;;;1.00;;